Time;durP1;ratioP1;P1;durP2;ratioP2;P2;SDS_P1;SDS_P2;PMS_P1;PMS_P2;Temp;Humidity;BMP_temperature;BMP_pressure;BME280_temperature;BME280_humidity;BME280_pressure;Samples;Min_cycle;Max_cycle;Signal;HPM_P1;HPM_P2
2022/07/10 00:01:42;;;;;;;4.85;3.75;;;;;;;17.57;92.66;98175.47;5013855;28;20033;-76
2022/07/10 00:04:07;;;;;;;8.23;3.85;;;;;;;17.73;91.47;98178.47;5014193;28;20034;-75
2022/07/10 00:06:32;;;;;;;4.70;3.35;;;;;;;17.59;91.74;98180.69;5014035;28;20038;-77
2022/07/10 00:08:58;;;;;;;4.80;3.40;;;;;;;17.31;94.19;98179.53;4996115;28;20036;-76
2022/07/10 00:11:23;;;;;;;8.38;3.55;;;;;;;17.22;95.71;98182.34;5014162;28;20033;-75
2022/07/10 00:13:48;;;;;;;7.75;3.70;;;;;;;17.31;95.34;98179.53;5014848;28;20034;-76
2022/07/10 00:16:14;;;;;;;4.15;3.17;;;;;;;17.36;95.46;98182.09;5017722;28;20037;-76
2022/07/10 00:18:39;;;;;;;4.70;3.67;;;;;;;17.27;96.58;98184.09;5014057;28;20021;-73
2022/07/10 00:21:06;;;;;;;5.43;3.00;;;;;;;17.24;97.57;98179.22;4996519;28;20383;-77
2022/07/10 00:23:31;;;;;;;4.47;3.47;;;;;;;17.26;97.70;98183.28;5013813;28;20089;-76
2022/07/10 00:25:56;;;;;;;5.88;3.47;;;;;;;17.25;98.13;98178.91;5013558;28;20065;-75
2022/07/10 00:28:23;;;;;;;8.38;3.60;;;;;;;17.18;98.81;98177.78;5013660;28;20394;-73
2022/07/10 00:30:48;;;;;;;6.20;3.10;;;;;;;17.12;100.00;98183.53;5013395;28;20045;-74
2022/07/10 00:33:13;;;;;;;4.28;3.38;;;;;;;17.07;100.00;98169.88;5013145;28;20056;-74
2022/07/10 00:35:39;;;;;;;7.43;4.00;;;;;;;17.19;100.00;98168.38;5013432;28;20029;-74
2022/07/10 00:38:04;;;;;;;6.30;3.40;;;;;;;17.05;100.00;98161.09;5013275;28;20110;-75
2022/07/10 00:40:30;;;;;;;7.25;3.75;;;;;;;17.14;100.00;98158.28;5012983;28;20403;-74
2022/07/10 00:42:55;;;;;;;5.32;3.33;;;;;;;17.19;100.00;98165.59;5013151;28;20030;-74
2022/07/10 00:45:20;;;;;;;5.55;3.67;;;;;;;17.18;100.00;98158.44;5013180;28;20478;-75
2022/07/10 00:47:46;;;;;;;6.50;3.40;;;;;;;17.24;100.00;98173.69;5013165;28;20084;-74
2022/07/10 00:50:12;;;;;;;4.70;3.20;;;;;;;17.28;99.50;98171.88;5013361;28;20462;-75
2022/07/10 00:52:38;;;;;;;5.03;3.28;;;;;;;17.19;100.00;98165.59;5013060;28;20385;-75
2022/07/10 00:55:05;;;;;;;5.05;3.30;;;;;;;17.23;99.69;98172.09;5012897;28;20022;-74
2022/07/10 00:57:31;;;;;;;4.97;3.30;;;;;;;17.20;98.94;98164.47;5012699;28;20021;-74
2022/07/10 00:59:57;;;;;;;5.65;3.20;;;;;;;17.19;97.94;98171.13;5012820;28;20483;-75
2022/07/10 01:02:23;;;;;;;5.03;3.90;;;;;;;17.20;96.91;98172.75;5012997;28;20030;-74
2022/07/10 01:04:49;;;;;;;5.60;3.63;;;;;;;17.32;95.96;98176.41;5012769;28;20033;-73
2022/07/10 01:07:15;;;;;;;5.55;3.05;;;;;;;17.41;95.30;98173.63;5012653;28;20056;-74
2022/07/10 01:09:41;;;;;;;7.25;3.47;;;;;;;17.44;95.19;98167.41;5012587;28;20022;-74
2022/07/10 01:12:08;;;;;;;6.22;3.40;;;;;;;17.37;94.93;98167.94;5012527;28;20036;-75
2022/07/10 01:14:35;;;;;;;5.22;3.58;;;;;;;17.44;93.81;98170.19;5012642;28;20542;-74
2022/07/10 01:17:01;;;;;;;5.28;3.65;;;;;;;17.38;94.92;98164.03;5012370;28;20037;-74
2022/07/10 01:19:26;;;;;;;5.07;3.53;;;;;;;17.32;96.14;98153.50;5013020;28;20026;-75
2022/07/10 01:21:52;;;;;;;6.65;3.50;;;;;;;17.35;96.44;98153.66;5012881;28;20411;-74
2022/07/10 01:24:17;;;;;;;5.45;3.30;;;;;;;17.17;98.21;98151.28;5012581;28;20041;-74
2022/07/10 01:26:43;;;;;;;5.70;3.38;;;;;;;17.29;97.74;98173.53;5012080;28;20783;-75
2022/07/10 01:29:11;;;;;;;5.22;2.97;;;;;;;17.29;98.36;98163.25;5012033;28;20091;-76
2022/07/10 01:31:36;;;;;;;4.63;3.40;;;;;;;17.25;99.17;98170.59;5012369;28;20379;-74
2022/07/10 01:34:07;;;;;;;4.65;3.25;;;;;;;17.41;97.90;98168.09;5012237;28;20042;-75
2022/07/10 01:36:33;;;;;;;6.30;3.28;;;;;;;17.48;97.50;98169.16;5012207;28;20181;-75
2022/07/10 01:38:59;;;;;;;5.50;2.83;;;;;;;17.55;96.76;98176.97;5012054;28;20475;-74
2022/07/10 01:41:25;;;;;;;7.70;3.45;;;;;;;17.63;95.84;98181.66;5012046;28;20503;-73
2022/07/10 01:43:51;;;;;;;4.43;3.42;;;;;;;17.65;95.27;98184.88;5012420;28;20778;-75
2022/07/10 01:46:16;;;;;;;4.72;3.38;;;;;;;17.43;97.35;98171.31;5011953;28;20026;-75
2022/07/10 01:48:42;;;;;;;7.10;3.47;;;;;;;17.36;97.99;98165.50;5012041;28;20133;-73
2022/07/10 01:51:09;;;;;;;4.95;3.30;;;;;;;17.29;99.05;98165.22;5012469;28;20068;-74
2022/07/10 01:53:35;;;;;;;4.93;3.83;;;;;;;17.34;97.74;98167.78;5011948;28;20145;-73
2022/07/10 01:56:05;;;;;;;4.63;3.45;;;;;;;17.14;99.25;98163.81;5011660;28;20430;-74
2022/07/10 01:58:30;;;;;;;4.75;3.53;;;;;;;17.07;99.37;98163.56;5011806;28;20456;-75
2022/07/10 02:00:56;;;;;;;5.30;3.50;;;;;;;17.31;97.36;98168.47;5010529;28;20120;-74
2022/07/10 02:06:05;;;;;;;4.35;3.30;;;;;;;17.49;96.55;98159.72;5012094;28;20100;-74
2022/07/10 02:08:31;;;;;;;5.80;3.20;;;;;;;17.52;95.99;98159.06;5011458;28;20474;-79
2022/07/10 02:10:56;;;;;;;5.80;3.42;;;;;;;17.47;95.96;98150.16;5011758;28;20026;-75
2022/07/10 02:13:24;;;;;;;5.00;3.45;;;;;;;17.54;95.24;98148.44;5012293;28;20038;-74
2022/07/10 02:15:50;;;;;;;5.25;3.58;;;;;;;17.50;94.80;98144.75;5012923;28;20079;-76
2022/07/10 02:18:15;;;;;;;3.47;2.92;;;;;;;17.53;94.63;98157.09;5013025;28;20093;-76
2022/07/10 02:20:41;;;;;;;4.97;3.10;;;;;;;17.45;94.98;98142.16;5014146;28;20529;-75
2022/07/10 02:23:06;;;;;;;6.75;3.58;;;;;;;17.53;94.96;98155.16;5013737;28;20026;-75
2022/07/10 02:25:32;;;;;;;6.47;3.30;;;;;;;17.55;94.29;98152.06;5013214;28;20018;-75
2022/07/10 02:27:58;;;;;;;5.72;3.20;;;;;;;17.51;94.45;98148.34;5012073;28;20040;-74
2022/07/10 02:30:23;;;;;;;4.80;3.20;;;;;;;17.32;96.53;98136.91;5011655;28;20026;-73
2022/07/10 02:32:48;;;;;;;5.88;3.25;;;;;;;17.30;96.23;98137.22;5011668;28;20029;-74
2022/07/10 02:35:14;;;;;;;7.13;3.20;;;;;;;17.17;96.77;98145.75;5011450;28;20029;-82
2022/07/10 02:37:39;;;;;;;6.93;3.30;;;;;;;17.12;96.95;98150.34;5020561;28;20431;-85
2022/07/10 02:40:05;;;;;;;4.07;2.90;;;;;;;17.11;96.24;98151.47;5023379;28;20104;-78
2022/07/10 02:42:30;;;;;;;5.25;3.25;;;;;;;17.20;94.70;98147.88;5024275;28;20090;-82
2022/07/10 02:44:56;;;;;;;4.47;3.20;;;;;;;17.10;95.56;98152.63;5025363;28;20056;-81
2022/07/10 02:47:21;;;;;;;7.30;3.20;;;;;;;17.08;96.56;98145.81;5018376;28;20064;-82
2022/07/10 02:49:46;;;;;;;4.10;3.10;;;;;;;17.17;94.19;98145.75;5015106;28;20029;-84
2022/07/10 02:52:12;;;;;;;6.93;3.15;;;;;;;17.15;94.81;98146.09;5015314;28;20042;-81
2022/07/10 02:54:37;;;;;;;4.43;3.10;;;;;;;17.07;93.62;98144.19;5014630;28;20467;-82
2022/07/10 02:57:03;;;;;;;6.03;3.30;;;;;;;17.05;91.16;98141.75;5015002;28;20058;-81
2022/07/10 02:59:29;;;;;;;4.22;3.03;;;;;;;16.93;92.26;98130.59;5015178;28;20088;-83
2022/07/10 03:01:54;;;;;;;3.92;2.85;;;;;;;16.89;93.37;98132.41;5014510;28;20068;-84
2022/07/10 03:04:19;;;;;;;4.07;2.85;;;;;;;16.90;94.08;98130.44;5014582;28;20029;-84
2022/07/10 03:06:45;;;;;;;4.45;3.20;;;;;;;16.93;94.77;98127.84;5013006;28;20054;-81
2022/07/10 03:09:10;;;;;;;4.38;2.95;;;;;;;17.01;94.58;98137.22;5014837;28;20045;-82
2022/07/10 03:11:35;;;;;;;4.15;2.88;;;;;;;17.00;94.83;98130.09;5013337;28;20080;-82
2022/07/10 03:14:01;;;;;;;7.95;3.42;;;;;;;17.01;95.00;98126.16;5015938;28;20029;-83
2022/07/10 03:16:26;;;;;;;4.75;3.13;;;;;;;16.94;95.65;98135.00;5014550;28;20041;-81
2022/07/10 03:18:51;;;;;;;4.80;3.28;;;;;;;16.86;98.11;98135.81;5013280;28;20030;-81
2022/07/10 03:21:17;;;;;;;4.78;3.38;;;;;;;16.77;100.00;98128.72;5013566;28;20033;-81
2022/07/10 03:23:42;;;;;;;7.45;3.60;;;;;;;16.70;100.00;98115.41;5013962;28;20076;-81
2022/07/10 03:26:07;;;;;;;6.93;3.25;;;;;;;16.58;100.00;98116.13;5013689;28;20032;-80
2022/07/10 03:28:33;;;;;;;3.92;3.00;;;;;;;16.47;100.00;98133.34;5013373;28;20025;-79
2022/07/10 03:30:58;;;;;;;4.20;3.50;;;;;;;16.36;100.00;98132.06;5012896;28;20026;-81
2022/07/10 03:33:23;;;;;;;5.60;3.42;;;;;;;16.45;100.00;98136.44;5013527;28;20048;-82
2022/07/10 03:35:49;;;;;;;5.35;3.38;;;;;;;16.57;100.00;98136.56;5013424;28;20147;-83
2022/07/10 03:38:14;;;;;;;4.63;3.50;;;;;;;16.52;100.00;98122.13;5013099;28;20113;-81
2022/07/10 03:40:40;;;;;;;5.85;3.58;;;;;;;16.58;100.00;98109.78;5014403;28;20061;-82
2022/07/10 03:43:05;;;;;;;4.05;3.35;;;;;;;16.66;100.00;98114.47;5013653;28;20033;-81
2022/07/10 03:45:31;;;;;;;7.60;3.35;;;;;;;16.58;100.00;98105.06;5012838;28;20475;-81
2022/07/10 03:47:57;;;;;;;5.88;4.03;;;;;;;16.62;100.00;98110.75;5012412;28;20522;-80
2022/07/10 03:50:23;;;;;;;4.70;2.95;;;;;;;16.60;100.00;98107.50;5015815;28;20026;-82
2022/07/10 03:52:48;;;;;;;7.50;3.58;;;;;;;16.73;100.00;98108.44;5016167;28;20018;-81
2022/07/10 03:55:14;;;;;;;6.07;3.45;;;;;;;16.78;100.00;98122.88;5016277;28;20051;-82
2022/07/10 03:57:54;;;;;;;5.15;3.67;;;;;;;16.70;100.00;98109.88;5015897;28;20030;-82
2022/07/10 04:00:24;;;;;;;9.05;4.13;;;;;;;16.76;100.00;98114.09;5016060;28;20028;-79
2022/07/10 04:03:09;;;;;;;5.20;3.78;;;;;;;16.94;100.00;98120.38;5002914;28;20510;-80
2022/07/10 04:05:35;;;;;;;8.43;3.80;;;;;;;17.02;99.87;98123.06;5015195;28;20050;-80
2022/07/10 04:08:03;;;;;;;6.07;3.65;;;;;;;17.05;99.16;98121.59;5003277;28;20138;-82
2022/07/10 04:10:30;;;;;;;5.70;3.40;;;;;;;17.03;98.98;98110.88;4996250;28;20022;-81
2022/07/10 04:12:56;;;;;;;5.35;3.53;;;;;;;17.13;98.26;98115.22;4994923;28;20062;-81
2022/07/10 04:15:22;;;;;;;8.82;3.13;;;;;;;17.11;97.48;98110.00;4978377;28;20022;-83
2022/07/10 04:17:48;;;;;;;8.38;3.80;;;;;;;17.08;97.57;98110.69;4996051;28;20026;-80
2022/07/10 04:20:14;;;;;;;6.22;3.58;;;;;;;17.06;98.14;98104.69;5009431;28;20445;-82
2022/07/10 04:22:39;;;;;;;7.05;3.80;;;;;;;17.10;97.68;98105.63;5016140;28;20030;-79
2022/07/10 04:25:05;;;;;;;6.00;3.88;;;;;;;17.16;97.13;98100.72;5016050;28;20029;-82
2022/07/10 04:27:31;;;;;;;5.95;3.90;;;;;;;17.16;96.04;98102.69;5016067;28;20044;-81
2022/07/10 04:29:56;;;;;;;6.35;3.90;;;;;;;17.23;95.27;98106.53;5015841;28;20037;-81
2022/07/10 04:32:21;;;;;;;4.97;3.60;;;;;;;17.44;93.34;98109.31;5016396;28;20040;-80
2022/07/10 04:34:47;;;;;;;7.25;3.72;;;;;;;17.50;92.71;98113.50;5024366;28;20057;-83
2022/07/10 04:37:12;;;;;;;5.72;3.50;;;;;;;17.52;91.84;98119.50;5025118;28;20483;-82
2022/07/10 04:39:38;;;;;;;4.80;3.40;;;;;;;17.56;90.16;98110.25;5015156;28;20030;-81
2022/07/10 04:42:05;;;;;;;9.77;3.50;;;;;;;17.56;90.55;98115.78;5015332;28;20021;-81
2022/07/10 04:44:31;;;;;;;6.35;3.58;;;;;;;17.63;88.72;98118.81;5015411;28;20125;-80
2022/07/10 04:46:56;;;;;;;5.68;3.45;;;;;;;17.71;88.62;98110.78;5014929;28;20093;-82
2022/07/10 04:49:21;;;;;;;4.65;3.17;;;;;;;17.85;87.31;98117.66;5015096;28;20032;-81
2022/07/10 04:51:46;;;;;;;4.50;3.40;;;;;;;17.77;88.97;98113.00;5015729;28;20113;-82
2022/07/10 04:54:12;;;;;;;6.50;3.45;;;;;;;17.91;89.25;98118.25;5014999;28;20076;-81
2022/07/10 04:56:37;;;;;;;6.22;3.55;;;;;;;17.97;88.70;98105.84;5003241;28;20062;-83
2022/07/10 04:59:03;;;;;;;5.53;3.63;;;;;;;18.00;88.81;98103.19;4976991;28;20057;-82
2022/07/10 05:01:31;;;;;;;4.75;3.40;;;;;;;17.93;88.74;98097.41;4994289;28;20057;-80
2022/07/10 05:03:57;;;;;;;9.18;3.20;;;;;;;17.94;89.33;98096.25;4995004;28;20037;-82
2022/07/10 05:06:23;;;;;;;10.77;3.75;;;;;;;18.08;89.04;98091.22;4995245;28;20018;-82
2022/07/10 05:08:48;;;;;;;9.05;3.60;;;;;;;18.15;88.24;98094.25;4994480;28;20462;-81
2022/07/10 05:11:13;;;;;;;7.28;3.63;;;;;;;18.14;88.93;98092.63;4997350;28;20373;-82
2022/07/10 05:13:39;;;;;;;8.52;3.88;;;;;;;18.29;87.79;98095.91;5003262;28;20061;-76
2022/07/10 05:16:05;;;;;;;4.57;3.67;;;;;;;18.57;84.87;98091.38;4993103;28;20452;-70
2022/07/10 05:18:30;;;;;;;5.60;4.03;;;;;;;18.63;84.76;98084.47;4992631;28;20026;-70
2022/07/10 05:20:56;;;;;;;10.85;3.80;;;;;;;18.69;84.59;98081.13;4991482;28;20043;-71
2022/07/10 05:23:21;;;;;;;14.95;7.53;;;;;;;19.00;82.60;98080.56;4992555;28;20035;-71
2022/07/10 05:25:47;;;;;;;19.65;9.60;;;;;;;19.24;81.49;98074.97;4992489;28;20121;-70
2022/07/10 05:28:15;;;;;;;7.43;4.10;;;;;;;19.45;79.52;98085.16;4992341;28;20508;-75
2022/07/10 05:30:41;;;;;;;11.98;6.05;;;;;;;19.46;79.79;98076.47;4992401;28;20026;-76
2022/07/10 05:33:07;;;;;;;10.30;4.97;;;;;;;19.48;78.66;98082.50;4992274;28;20566;-73
2022/07/10 05:35:32;;;;;;;6.60;3.60;;;;;;;19.44;79.14;98083.53;4992054;28;20038;-73
2022/07/10 05:37:58;;;;;;;7.38;4.13;;;;;;;19.71;77.23;98082.75;4992343;28;20093;-74
2022/07/10 05:40:23;;;;;;;6.47;3.80;;;;;;;19.83;76.17;98085.50;4992442;28;20022;-74
2022/07/10 05:42:49;;;;;;;5.53;3.65;;;;;;;19.51;77.49;98078.22;4992108;28;20030;-76
2022/07/10 05:45:14;;;;;;;10.48;4.93;;;;;;;19.46;77.72;98083.97;4992149;28;20081;-75
2022/07/10 05:47:40;;;;;;;5.35;3.67;;;;;;;19.51;78.00;98079.03;4992125;28;20558;-75
2022/07/10 05:50:05;;;;;;;8.43;3.92;;;;;;;19.56;77.06;98075.19;4993239;28;20388;-75
2022/07/10 05:52:31;;;;;;;24.75;13.27;;;;;;;19.65;76.45;98090.53;5011323;28;20118;-74
2022/07/10 05:54:57;;;;;;;7.25;4.65;;;;;;;19.65;75.93;98084.16;5010972;28;20486;-73
2022/07/10 05:57:23;;;;;;;5.45;3.83;;;;;;;19.52;76.17;98077.84;4995214;28;20034;-75
2022/07/10 05:59:48;;;;;;;6.47;3.38;;;;;;;19.61;76.27;98094.34;5010804;28;20048;-73
2022/07/10 06:02:15;;;;;;;6.90;4.13;;;;;;;19.66;76.04;98083.84;5011014;28;20467;-73
2022/07/10 06:04:40;;;;;;;12.15;6.80;;;;;;;19.33;77.68;98080.38;5009084;28;20029;-73
2022/07/10 06:07:06;;;;;;;51.50;32.05;;;;;;;19.31;77.73;98088.25;5011332;28;20034;-73
2022/07/10 06:09:31;;;;;;;5.30;4.00;;;;;;;19.42;77.50;98085.84;5008963;28;20502;-71
2022/07/10 06:11:56;;;;;;;7.43;4.15;;;;;;;19.58;76.46;98090.31;5009491;28;20034;-72
2022/07/10 06:14:22;;;;;;;13.40;6.97;;;;;;;19.71;75.83;98093.88;5008997;28;20491;-74
2022/07/10 06:16:47;;;;;;;8.35;4.78;;;;;;;19.55;75.13;98084.66;4994131;28;20115;-83
2022/07/10 06:19:12;;;;;;;7.25;3.42;;;;;;;19.49;75.86;98097.16;5015960;28;20060;-81
2022/07/10 06:21:38;;;;;;;4.40;2.90;;;;;;;19.62;74.85;98095.97;5016532;28;20014;-78
2022/07/10 06:24:03;;;;;;;5.03;3.13;;;;;;;19.53;74.66;98098.06;4997983;28;20464;-78
2022/07/10 06:26:29;;;;;;;5.60;3.67;;;;;;;19.56;74.85;98094.59;5008800;28;20606;-74
2022/07/10 06:28:54;;;;;;;5.10;2.90;;;;;;;19.90;73.00;98085.72;5008290;28;20021;-75
2022/07/10 06:31:20;;;;;;;7.10;3.28;;;;;;;20.40;70.71;98087.09;5010535;28;20036;-80
2022/07/10 06:33:45;;;;;;;4.43;3.13;;;;;;;20.90;68.09;98076.09;5012092;28;20042;-80
2022/07/10 06:36:12;;;;;;;4.75;3.08;;;;;;;21.31;65.66;98077.53;5010527;28;20117;-79
2022/07/10 06:38:38;;;;;;;4.32;3.35;;;;;;;21.29;64.63;98080.69;5008657;28;20033;-80
2022/07/10 06:41:03;;;;;;;8.35;3.22;;;;;;;21.13;66.07;98077.13;5010112;28;20068;-82
2022/07/10 06:43:29;;;;;;;4.18;3.33;;;;;;;20.75;66.48;98088.06;5007037;28;20128;-74
2022/07/10 06:45:55;;;;;;;6.07;3.00;;;;;;;20.54;67.06;98087.50;5012684;28;20034;-80
2022/07/10 06:48:20;;;;;;;5.85;3.00;;;;;;;20.07;67.96;98084.59;5011364;28;20026;-81
2022/07/10 06:50:46;;;;;;;4.72;2.92;;;;;;;19.76;68.01;98093.63;5016348;28;20089;-83
2022/07/10 06:53:11;;;;;;;4.53;3.30;;;;;;;19.65;69.62;98084.16;5013305;28;20033;-86
2022/07/10 06:55:37;;;;;;;4.97;2.85;;;;;;;19.58;70.71;98092.28;5020143;28;20026;-84
2022/07/10 06:58:03;;;;;;;4.93;3.40;;;;;;;19.49;71.85;98077.72;5028546;28;20042;-82
2022/07/10 07:00:28;;;;;;;5.90;3.33;;;;;;;19.37;71.60;98069.41;5029943;28;20010;-83
2022/07/10 07:02:54;;;;;;;4.95;2.88;;;;;;;19.37;72.19;98066.63;5022428;28;20061;-79
2022/07/10 07:05:21;;;;;;;5.05;3.38;;;;;;;19.57;70.75;98079.56;5024913;28;20036;-83
2022/07/10 07:07:46;;;;;;;3.92;2.67;;;;;;;19.66;70.38;98071.91;5029829;28;20026;-82
2022/07/10 07:10:12;;;;;;;8.95;3.47;;;;;;;19.69;70.35;98085.09;5032076;28;20041;-83
2022/07/10 07:12:37;;;;;;;3.28;2.65;;;;;;;19.68;70.05;98072.38;5034323;28;20021;-79
2022/07/10 07:15:03;;;;;;;3.90;2.75;;;;;;;19.71;70.56;98079.97;5034315;28;20085;-82
2022/07/10 07:17:45;;;;;;;4.18;2.83;;;;;;;19.50;70.52;98068.25;5034518;28;20422;-81
2022/07/10 07:23:11;;;;;;;6.22;3.10;;;;;;;19.70;69.34;98076.41;4983425;28;20027;-84
2022/07/10 07:25:44;;;;;;;4.28;2.85;;;;;;;19.81;69.38;98082.28;5016908;28;20020;-81
2022/07/10 07:28:10;;;;;;;5.70;2.85;;;;;;;20.02;68.16;98077.31;5028373;28;20117;-83
2022/07/10 07:30:37;;;;;;;5.60;2.75;;;;;;;20.04;68.46;98091.69;5024469;28;20025;-80
2022/07/10 07:33:02;;;;;;;9.82;6.72;;;;;;;19.81;68.55;98087.00;5004506;28;20022;-79
2022/07/10 07:35:28;;;;;;;11.82;6.28;;;;;;;19.53;69.73;98073.09;5013729;28;20045;-80
2022/07/10 07:37:53;;;;;;;45.63;27.05;;;;;;;19.57;70.89;98083.16;5012434;28;20026;-78
2022/07/10 07:40:22;;;;;;;8.30;4.63;;;;;;;19.65;73.51;98089.72;5014308;28;20022;-78
2022/07/10 07:42:53;;;;;;;4.50;3.10;;;;;;;19.66;73.00;98088.56;5012646;28;20060;-77
2022/07/10 07:45:19;;;;;;;3.85;2.85;;;;;;;19.68;73.02;98089.84;5011398;28;20026;-77
2022/07/10 07:47:47;;;;;;;4.90;2.88;;;;;;;19.82;70.91;98072.78;5013107;28;20030;-73
2022/07/10 07:50:19;;;;;;;4.10;2.80;;;;;;;19.96;69.58;98081.50;5011185;28;20030;-74
2022/07/10 07:52:46;;;;;;;5.38;3.08;;;;;;;19.91;69.23;98084.56;5013823;28;20029;-81
2022/07/10 07:55:14;;;;;;;6.28;3.60;;;;;;;20.14;68.28;98085.59;5013844;28;20029;-74
2022/07/10 07:57:40;;;;;;;6.45;3.25;;;;;;;20.33;67.11;98086.94;5012798;28;20022;-79
2022/07/10 08:00:07;;;;;;;4.03;2.83;;;;;;;;;;5000670;28;20108;-75
2022/07/10 08:02:33;;;;;;;5.10;2.70;;;;;;;20.74;64.98;98092.78;4996693;28;20026;-75
2022/07/10 08:04:58;;;;;;;3.50;2.70;;;;;;;20.77;64.50;98091.25;5016454;28;20542;-80
2022/07/10 08:07:36;;;;;;;5.00;3.13;;;;;;;20.54;64.92;98084.72;5015941;28;20125;-72
2022/07/10 08:10:03;;;;;;;5.50;3.13;;;;;;;20.33;67.28;98076.59;5012689;28;20132;-76
2022/07/10 08:12:28;;;;;;;3.80;2.63;;;;;;;20.30;65.90;98082.88;5012966;28;20060;-75
2022/07/10 08:14:54;;;;;;;4.38;2.95;;;;;;;20.55;65.37;98086.34;5012774;28;20117;-74
2022/07/10 08:17:19;;;;;;;4.53;2.85;;;;;;;21.02;64.08;98086.34;5013287;28;20091;-76
2022/07/10 08:19:44;;;;;;;3.75;2.60;;;;;;;21.58;64.13;98092.47;5014454;28;20026;-76
2022/07/10 08:22:10;;;;;;;4.38;2.97;;;;;;;21.80;60.26;98088.97;5013904;28;20042;-75
2022/07/10 08:24:35;;;;;;;4.55;2.92;;;;;;;21.63;60.66;98092.97;5013971;28;20036;-76
2022/07/10 08:27:00;;;;;;;3.95;2.92;;;;;;;21.63;61.06;98083.81;5013499;28;20037;-75
2022/07/10 08:29:26;;;;;;;5.63;2.90;;;;;;;21.92;59.43;98097.22;5013147;28;20499;-75
2022/07/10 08:31:52;;;;;;;5.03;2.72;;;;;;;22.46;58.15;98096.28;5013088;28;20030;-76
2022/07/10 08:34:17;;;;;;;4.35;2.80;;;;;;;22.66;57.34;98100.66;5013187;28;20046;-75
2022/07/10 08:36:42;;;;;;;4.18;2.95;;;;;;;22.63;55.30;98096.59;5012340;28;20026;-75
2022/07/10 08:39:08;;;;;;;4.40;2.88;;;;;;;22.88;55.55;98089.50;5013066;28;20038;-76
2022/07/10 08:41:35;;;;;;;5.85;3.05;;;;;;;23.34;51.73;98101.41;5013244;28;20052;-75
2022/07/10 08:44:00;;;;;;;4.05;2.80;;;;;;;23.51;52.19;98100.13;5013078;28;20033;-76
2022/07/10 08:46:27;;;;;;;4.05;2.67;;;;;;;23.92;50.14;98106.66;4995164;28;20040;-76
2022/07/10 08:48:54;;;;;;;3.85;2.45;;;;;;;23.81;52.08;98108.50;5012946;28;20037;-76
2022/07/10 08:51:30;;;;;;;4.60;2.80;;;;;;;23.59;51.34;98113.00;5013782;28;20030;-78
2022/07/10 08:53:57;;;;;;;7.07;2.60;;;;;;;23.09;54.48;98122.53;5014884;28;20033;-77
2022/07/10 08:56:22;;;;;;;4.70;2.80;;;;;;;22.74;55.22;98111.56;5019701;28;20087;-78
2022/07/10 08:58:51;;;;;;;4.35;2.88;;;;;;;22.26;58.44;98120.59;5013278;28;20022;-78
2022/07/10 09:01:22;;;;;;;4.18;3.05;;;;;;;22.05;62.10;98120.97;5012833;28;20054;-77
2022/07/10 09:03:49;;;;;;;4.60;3.13;;;;;;;21.61;63.27;98125.16;5012886;28;20021;-78
2022/07/10 09:06:14;;;;;;;7.65;3.42;;;;;;;21.11;63.39;98118.38;5012866;28;20037;-76
2022/07/10 09:09:00;;;;;;;3.58;2.67;;;;;;;20.36;60.36;98130.69;5012866;28;20026;-78
2022/07/10 09:11:28;;;;;;;5.30;3.13;;;;;;;20.25;62.99;98130.34;5012652;28;20030;-76
2022/07/10 09:13:59;;;;;;;4.97;3.28;;;;;;;20.11;69.31;98125.19;5014768;28;20502;-77
2022/07/10 09:16:28;;;;;;;5.13;3.10;;;;;;;19.62;72.37;98123.72;5012433;28;20030;-76
2022/07/10 09:18:54;;;;;;;4.65;2.90;;;;;;;19.61;79.32;98127.66;5012429;28;20033;-77
2022/07/10 09:21:21;;;;;;;3.75;2.83;;;;;;;19.53;81.69;98125.84;5012954;28;20395;-76
2022/07/10 09:23:47;;;;;;;4.85;2.95;;;;;;;19.40;84.52;98127.00;5012200;28;20038;-77
2022/07/10 09:26:12;;;;;;;4.90;3.33;;;;;;;19.45;85.08;98124.78;5012344;28;20026;-76
2022/07/10 09:28:38;;;;;;;5.20;3.35;;;;;;;19.41;84.21;98121.13;5012212;28;20041;-76
2022/07/10 09:31:03;;;;;;;5.70;3.60;;;;;;;19.38;83.76;98118.19;5011922;28;20032;-77
2022/07/10 09:33:30;;;;;;;6.20;3.70;;;;;;;19.31;87.46;98115.19;5011940;28;20053;-76
2022/07/10 09:38:44;;;;;;;7.00;3.60;;;;;;;18.92;95.31;98106.41;5011918;28;20087;-79
2022/07/10 09:41:14;;;;;;;9.23;3.72;;;;;;;18.60;99.68;98099.81;5011999;28;20026;-78
2022/07/10 09:43:46;;;;;;;6.10;3.67;;;;;;;18.29;100.00;98084.84;4994541;28;20025;-77
2022/07/10 09:46:13;;;;;;;5.53;3.63;;;;;;;18.17;100.00;98075.31;5012072;28;20040;-77
2022/07/10 09:48:39;;;;;;;4.40;2.88;;;;;;;18.12;100.00;98056.16;5011968;28;20402;-79
2022/07/10 09:51:09;;;;;;;13.88;4.03;;;;;;;18.44;100.00;98045.38;5012483;28;20054;-78
2022/07/10 09:53:43;;;;;;;6.63;3.25;;;;;;;18.63;100.00;98042.91;5012329;28;20521;-79
2022/07/10 09:56:11;;;;;;;4.78;3.30;;;;;;;18.72;94.78;98046.38;5012062;28;20025;-79
2022/07/10 09:58:37;;;;;;;9.68;4.20;;;;;;;18.84;98.07;98064.94;5012005;28;20510;-79
2022/07/10 10:01:06;;;;;;;5.55;3.55;;;;;;;18.83;97.72;98077.19;5011972;28;20041;-76
2022/07/10 10:03:36;;;;;;;6.35;3.70;;;;;;;18.94;99.64;98081.13;5011537;28;20129;-78
2022/07/10 10:06:29;;;;;;;6.50;4.13;;;;;;;19.07;97.40;98080.78;5011981;28;20482;-75
2022/07/10 10:09:24;;;;;;;5.13;3.45;;;;;;;19.17;96.02;98057.31;5008937;28;20528;-77
2022/07/10 10:11:56;;;;;;;6.72;4.47;;;;;;;20.51;92.81;98052.91;5011593;28;20037;-75
2022/07/10 10:14:23;;;;;;;6.03;3.60;;;;;;;22.58;79.83;98057.06;5011839;28;20053;-76
2022/07/10 10:16:49;;;;;;;6.03;3.53;;;;;;;25.10;63.18;98068.41;5011314;28;20064;-76
2022/07/10 10:22:02;;;;;;;5.78;3.13;;;;;;;28.23;49.86;98072.25;5011947;28;20446;-77
2022/07/10 10:24:31;;;;;;;4.90;3.33;;;;;;;29.01;47.76;98063.31;5012157;28;20049;-78
2022/07/10 10:26:57;;;;;;;5.18;3.60;;;;;;;28.14;48.21;98060.63;5011320;28;20029;-77
2022/07/10 10:29:22;;;;;;;4.00;2.75;;;;;;;27.89;49.74;98073.97;5011449;28;20084;-76
2022/07/10 10:31:49;;;;;;;4.20;3.05;;;;;;;28.62;47.72;98067.22;5011055;28;20022;-77
2022/07/10 10:34:42;;;;;;;5.00;3.50;;;;;;;27.03;48.39;98064.06;5011032;28;20108;-76
2022/07/10 10:37:27;;;;;;;5.18;3.40;;;;;;;25.04;55.99;98058.75;5010787;28;20467;-75
2022/07/10 10:39:53;;;;;;;;;;;;;;;23.67;59.70;98050.47;5011501;28;20487;-75
2022/07/10 10:42:44;;;;;;;7.25;3.40;;;;;;;23.33;61.83;98040.38;5011069;28;20322;-75
2022/07/10 10:45:22;;;;;;;8.35;3.80;;;;;;;22.97;66.31;98030.66;5010795;28;20041;-75
2022/07/10 10:48:10;;;;;;;4.55;3.40;;;;;;;22.78;66.62;98027.94;5010812;28;20026;-76
2022/07/10 10:50:40;;;;;;;5.32;3.58;;;;;;;22.29;66.95;98028.69;5010773;28;20495;-77
2022/07/10 10:53:19;;;;;;;4.40;3.10;;;;;;;22.14;66.68;98021.22;5011464;28;20033;-75
2022/07/10 10:56:07;;;;;;;4.50;3.10;;;;;;;21.81;66.72;98020.94;5011366;28;20029;-75
2022/07/10 10:58:43;;;;;;;5.30;3.30;;;;;;;22.10;67.91;98016.75;5011052;28;20030;-75
2022/07/10 11:01:21;;;;;;;4.95;3.38;;;;;;;22.41;69.22;98020.13;4993276;28;20017;-75
2022/07/10 11:04:04;;;;;;;6.60;3.55;;;;;;;22.42;67.67;98016.19;5011111;28;20029;-75
2022/07/10 11:06:39;;;;;;;3.95;2.97;;;;;;;21.69;68.80;98015.50;5014161;28;20042;-75
2022/07/10 11:09:36;;;;;;;6.95;4.03;;;;;;;21.56;67.96;98003.72;5013189;28;20483;-76
2022/07/10 11:12:10;;;;;;;6.53;3.10;;;;;;;22.30;66.73;98001.63;4994174;28;20120;-76
2022/07/10 11:14:44;;;;;;;4.78;3.15;;;;;;;21.94;67.13;98002.91;5010644;28;20053;-77
2022/07/10 11:17:09;;;;;;;8.80;3.30;;;;;;;22.50;65.77;98002.34;5010415;28;20125;-75
2022/07/10 11:19:36;;;;;;;3.63;3.13;;;;;;;22.98;62.69;97997.97;5010491;28;20148;-74
2022/07/10 11:22:29;;;;;;;5.75;3.28;;;;;;;23.16;62.68;97987.88;5010851;28;20467;-74
2022/07/10 11:25:19;;;;;;;7.10;3.75;;;;;;;22.79;61.82;97990.50;5010563;28;20040;-73
2022/07/10 11:28:07;;;;;;;8.25;3.97;;;;;;;22.74;61.24;97982.47;5010771;28;20119;-76
2022/07/10 11:30:53;;;;;;;3.80;2.95;;;;;;;22.61;63.57;97973.47;5010794;28;20045;-77
2022/07/10 11:33:22;;;;;;;5.10;3.35;;;;;;;22.82;63.00;97973.03;5010558;28;20092;-76
2022/07/10 11:35:50;;;;;;;6.15;3.80;;;;;;;22.59;61.86;97961.88;5010522;28;20030;-76
2022/07/10 11:38:23;;;;;;;5.75;3.20;;;;;;;22.75;60.58;97961.75;5010628;28;20022;-77
2022/07/10 11:40:49;;;;;;;4.35;3.05;;;;;;;22.83;59.18;97964.28;5012016;28;20059;-76
2022/07/10 11:43:17;;;;;;;6.07;3.10;;;;;;;22.69;60.96;97964.06;5012865;28;20109;-76
2022/07/10 11:45:43;;;;;;;4.72;3.33;;;;;;;22.74;60.24;97960.16;4995690;28;20047;-76